Time;durP1;ratioP1;P1;durP2;ratioP2;P2;SDS_P1;SDS_P2;PMS_P1;PMS_P2;Temp;Humidity;BMP_temperature;BMP_pressure;BME280_temperature;BME280_humidity;BME280_pressure;Samples;Min_cycle;Max_cycle;Signal;HPM_P1;HPM_P2
2023/01/12 00:02:24;;;;;;;;;;;;;;;4.77;78.45;98364.97;5062097;28;4757;-79
2023/01/12 00:04:51;;;;;;;;;;;;;;;4.76;78.54;98365.97;5063267;28;4576;-79
2023/01/12 00:07:19;;;;;;;;;;;;;;;4.74;78.42;98360.91;5061118;28;4528;-79
2023/01/12 00:09:45;;;;;;;;;;;;;;;4.75;78.42;98349.19;5063140;28;4540;-79
2023/01/12 00:12:12;;;;;;;;;;;;;;;4.73;78.48;98356.59;5064264;28;4798;-79
2023/01/12 00:14:39;;;;;;;;;;;;;;;4.73;78.46;98350.47;5059415;28;4592;-79
2023/01/12 00:17:05;;;;;;;;;;;;;;;4.75;78.43;98354.50;5061693;28;4546;-79
2023/01/12 00:19:32;;;;;;;;;;;;;;;4.73;78.60;98359.25;5059847;28;4584;-79
2023/01/12 00:22:01;;;;;;;;;;;;;;;4.74;78.42;98352.91;5061073;28;4694;-79
2023/01/12 00:24:27;;;;;;;;;;;;;;;4.74;78.48;98360.09;5062376;28;4621;-79
2023/01/12 00:26:54;;;;;;;;;;;;;;;4.73;78.64;98351.25;5060737;28;4609;-79
2023/01/12 00:29:21;;;;;;;;;;;;;;;4.72;78.55;98349.66;5069218;28;4626;-79
2023/01/12 00:31:47;;;;;;;;;;;;;;;4.72;78.69;98348.84;5080645;28;4514;-79
2023/01/12 00:34:14;;;;;;;;;;;;;;;4.74;78.49;98349.44;5081765;28;4578;-79
2023/01/12 00:36:40;;;;;;;;;;;;;;;4.71;78.59;98345.38;5080145;28;4511;-79
2023/01/12 00:39:07;;;;;;;;;;;;;;;4.72;78.63;98346.19;5074217;28;4546;-79
2023/01/12 00:47:02;;;;;;;;;;;;;;;4.70;78.63;98351.72;5067075;28;4625;-79
2023/01/12 00:49:28;;;;;;;;;;;;;;;4.69;78.33;98355.47;5088826;28;4546;-79
2023/01/12 00:51:55;;;;;;;;;;;;;;;4.68;78.75;98353.84;5064718;28;4603;-79
2023/01/12 00:54:22;;;;;;;;;;;;;;;4.69;78.68;98366.13;5066973;28;4625;-79
2023/01/12 00:56:48;;;;;;;;;;;;;;;4.69;78.62;98360.78;5078403;28;4582;-79
2023/01/12 00:59:15;;;;;;;;;;;;;;;4.69;78.56;98366.13;5081885;28;4621;-79
2023/01/12 01:01:41;;;;;;;;;;;;;;;4.70;78.64;98374.94;5080415;28;4634;-79
2023/01/12 01:04:08;;;;;;;;;;;;;;;4.68;78.51;98371.72;5082682;28;4671;-79
2023/01/12 01:06:34;;;;;;;;;;;;;;;4.67;78.79;98370.88;5086546;28;4624;-79
2023/01/12 01:09:03;;;;;;;;;;;;;;;4.67;78.67;98364.72;5071366;28;4994;-79
2023/01/12 01:11:30;;;;;;;;;;;;;;;4.66;78.78;98371.94;5081479;28;4717;-79
2023/01/12 01:13:58;;;;;;;;;;;;;;;4.67;78.81;98372.72;5080743;28;4651;-79
2023/01/12 01:16:24;;;;;;;;;;;;;;;4.69;78.59;98378.66;5070386;28;4594;-79
2023/01/12 01:18:51;;;;;;;;;;;;;;;4.68;78.46;98383.19;5078280;28;4485;-79
2023/01/12 01:21:18;;;;;;;;;;;;;;;4.67;78.70;98388.72;5081870;28;4543;-79
2023/01/12 01:23:44;;;;;;;;;;;;;;;4.67;78.56;98391.41;5077518;28;4579;-79
2023/01/12 01:26:12;;;;;;;;;;;;;;;4.64;78.71;98387.34;5083837;28;4776;-79
2023/01/12 01:28:38;;;;;;;;;;;;;;;4.64;78.34;98386.53;5080106;28;4590;-79
2023/01/12 01:31:05;;;;;;;;;;;;;;;4.64;78.74;98387.34;5065694;28;4717;-79
2023/01/12 01:33:31;;;;;;;;;;;;;;;4.63;78.52;98387.59;5087323;28;4597;-79
2023/01/12 01:35:58;;;;;;;;;;;;;;;4.66;78.71;98392.44;5082188;28;4836;-79
2023/01/12 01:38:24;;;;;;;;;;;;;;;4.63;78.72;98384.91;5081054;28;4494;-79
2023/01/12 01:40:51;;;;;;;;;;;;;;;4.62;78.51;98384.13;5067427;28;4963;-79
2023/01/12 01:43:17;;;;;;;;;;;;;;;4.61;78.67;98377.13;5083079;28;4499;-79
2023/01/12 01:45:44;;;;;;;;;;;;;;;4.61;78.65;98384.34;5080696;28;4487;-79
2023/01/12 01:48:10;;;;;;;;;;;;;;;4.61;78.64;98382.47;5062362;28;4608;-78
2023/01/12 01:50:37;;;;;;;;;;;;;;;4.61;78.75;98377.13;5081453;28;4554;-79
2023/01/12 01:53:03;;;;;;;;;;;;;;;4.61;78.36;98365.66;5057641;28;4699;-79
2023/01/12 01:55:30;;;;;;;;;;;;;;;4.67;78.46;98354.88;5081982;28;4677;-79
2023/01/12 01:57:57;;;;;;;;;;;;;;;4.61;78.68;98344.34;5079299;28;4776;-79
2023/01/12 02:00:23;;;;;;;;;;;;;;;4.59;78.86;98341.09;5083399;28;4714;-79
2023/01/12 02:02:50;;;;;;;;;;;;;;;4.58;78.60;98336.81;5084322;28;4613;-79
2023/01/12 02:05:17;;;;;;;;;;;;;;;4.58;78.56;98320.81;5079900;28;4615;-79
2023/01/12 02:07:44;;;;;;;;;;;;;;;4.58;78.81;98328.81;5053894;28;4595;-79
2023/01/12 02:10:10;;;;;;;;;;;;;;;4.57;78.50;98337.88;5057056;28;4493;-79
2023/01/12 02:18:09;;;;;;;;;;;;;;;4.57;78.59;98348.53;5073289;28;4597;-79
2023/01/12 02:20:36;;;;;;;;;;;;;;;4.55;78.82;98343.41;5070419;28;4446;-79
2023/01/12 02:23:02;;;;;;;;;;;;;;;4.54;78.76;98339.94;5057263;28;4554;-79
2023/01/12 02:25:29;;;;;;;;;;;;;;;4.57;78.57;98338.69;5080426;28;4601;-79
2023/01/12 02:27:55;;;;;;;;;;;;;;;4.55;78.57;98335.41;5065423;28;4553;-79
2023/01/12 02:30:22;;;;;;;;;;;;;;;4.54;78.70;98321.28;5075186;28;4569;-79
2023/01/12 02:32:48;;;;;;;;;;;;;;;4.54;78.75;98329.28;5070917;28;4510;-79
2023/01/12 02:35:15;;;;;;;;;;;;;;;4.54;78.59;98329.28;5053013;28;4696;-79
2023/01/12 02:37:41;;;;;;;;;;;;;;;4.54;78.69;98331.16;5058675;28;4572;-79
2023/01/12 02:40:08;;;;;;;;;;;;;;;4.53;78.88;98317.00;5070359;28;4566;-79
2023/01/12 02:42:46;;;;;;;;;;;;;;;4.57;78.62;98327.19;5055585;28;4497;-79
2023/01/12 02:45:12;;;;;;;;;;;;;;;4.57;78.50;98320.00;5058277;28;4580;-79
2023/01/12 02:47:39;;;;;;;;;;;;;;;4.58;78.68;98326.16;5047075;28;4533;-79
2023/01/12 02:50:06;;;;;;;;;;;;;;;4.54;78.52;98318.63;5055716;28;4474;-79
2023/01/12 02:52:32;;;;;;;;;;;;;;;4.51;78.65;98304.97;5075099;28;4608;-79
2023/01/12 02:54:59;;;;;;;;;;;;;;;4.54;78.59;98310.63;5066882;28;4533;-79
2023/01/12 02:57:25;;;;;;;;;;;;;;;4.52;78.58;98302.03;5084024;28;4547;-79
2023/01/12 02:59:52;;;;;;;;;;;;;;;4.53;78.37;98300.22;5083058;28;4708;-79
2023/01/12 03:02:18;;;;;;;;;;;;;;;4.50;78.73;98292.66;5065551;28;4582;-79
2023/01/12 03:04:45;;;;;;;;;;;;;;;4.51;78.61;98299.63;5080056;28;4456;-79
2023/01/12 03:07:11;;;;;;;;;;;;;;;4.51;78.47;98302.28;5070636;28;4602;-79
2023/01/12 03:09:38;;;;;;;;;;;;;;;4.51;78.81;98308.44;5069478;28;4483;-79
2023/01/12 03:12:04;;;;;;;;;;;;;;;4.49;78.47;98307.84;5053209;28;4583;-79
2023/01/12 03:14:31;;;;;;;;;;;;;;;4.50;78.50;98305.97;5069825;28;4478;-80
2023/01/12 03:16:58;;;;;;;;;;;;;;;4.48;78.56;98308.91;5070268;28;4593;-79
2023/01/12 03:19:24;;;;;;;;;;;;;;;4.49;78.52;98302.50;5067598;28;4312;-79
2023/01/12 03:21:51;;;;;;;;;;;;;;;4.50;78.63;98312.16;5071574;28;4574;-79
2023/01/12 03:24:17;;;;;;;;;;;;;;;4.49;78.46;98305.19;5056702;28;4696;-79
2023/01/12 03:26:44;;;;;;;;;;;;;;;4.49;78.44;98304.38;5053152;28;4910;-79
2023/01/12 03:29:10;;;;;;;;;;;;;;;4.47;78.89;98312.63;5070946;28;4495;-79
2023/01/12 03:31:37;;;;;;;;;;;;;;;4.47;78.65;98304.63;5069025;28;4491;-79
2023/01/12 03:34:03;;;;;;;;;;;;;;;4.47;78.90;98301.97;5061580;28;4514;-79
2023/01/12 03:36:31;;;;;;;;;;;;;;;4.47;78.71;98301.13;5070416;28;4487;-79
2023/01/12 03:38:57;;;;;;;;;;;;;;;4.47;78.53;98309.94;5067600;28;4534;-79
2023/01/12 03:41:24;;;;;;;;;;;;;;;4.47;78.65;98312.63;5050261;28;4480;-79
2023/01/12 03:43:50;;;;;;;;;;;;;;;4.47;78.57;98309.13;5060901;28;4578;-79
2023/01/12 03:46:17;;;;;;;;;;;;;;;4.46;78.50;98305.66;5071142;28;4771;-79
2023/01/12 03:48:44;;;;;;;;;;;;;;;4.45;78.65;98304.03;5072763;28;4491;-79
2023/01/12 03:51:11;;;;;;;;;;;;;;;4.46;78.66;98307.50;5075863;28;4722;-79
2023/01/12 03:53:37;;;;;;;;;;;;;;;4.46;78.31;98297.66;5067864;28;4632;-79
2023/01/12 03:56:04;;;;;;;;;;;;;;;4.44;78.79;98289.09;5054917;28;4736;-79
2023/01/12 03:58:31;;;;;;;;;;;;;;;4.44;78.52;98296.25;5068660;28;4571;-79
2023/01/12 04:00:57;;;;;;;;;;;;;;;4.44;78.24;98305.09;5070144;28;4605;-80
2023/01/12 04:03:24;;;;;;;;;;;;;;;4.44;78.46;98299.75;5068734;28;4254;-79
2023/01/12 04:05:51;;;;;;;;;;;;;;;4.44;78.80;98301.59;5073746;28;4334;-79
2023/01/12 04:08:17;;;;;;;;;;;;;;;4.42;78.49;98298.38;5066899;28;4605;-79
2023/01/12 04:10:44;;;;;;;;;;;;;;;4.45;78.83;98303.22;5067341;28;4582;-79
2023/01/12 04:13:09;;;;;;;;;;;;;;;4.44;78.67;98297.09;5068829;28;4450;-79
2023/01/12 04:15:56;;;;;;;;;;;;;;;4.46;78.60;98288.84;5070872;28;4511;-79
2023/01/12 04:18:43;;;;;;;;;;;;;;;4.45;78.77;98281.91;5071813;28;4577;-79
2023/01/12 04:24:32;;;;;;;;;;;;;;;4.45;78.43;98279.25;5068743;28;4459;-79
2023/01/12 04:27:23;;;;;;;;;;;;;;;4.45;78.48;98269.38;5069340;28;4288;-79
2023/01/12 04:29:50;;;;;;;;;;;;;;;4.45;78.73;98260.59;5055520;28;4618;-79
2023/01/12 04:32:17;;;;;;;;;;;;;;;3.99;78.33;98196.47;5065465;28;4622;-79
2023/01/12 04:34:44;;;;;;;;;;;;;;;4.46;78.59;98259.53;5075108;28;4527;-79
2023/01/12 04:37:11;;;;;;;;;;;;;;;4.47;78.62;98255.81;5067569;28;4637;-79
2023/01/12 04:39:37;;;;;;;;;;;;;;;4.46;78.34;98268.34;5066758;28;4577;-79
2023/01/12 04:42:04;;;;;;;;;;;;;;;4.47;78.61;98269.13;5068361;28;4531;-79
2023/01/12 04:44:32;;;;;;;;;;;;;;;4.47;78.49;98282.47;5049321;28;4532;-79
2023/01/12 04:46:59;;;;;;;;;;;;;;;4.49;78.30;98299.84;5082343;28;4503;-79
2023/01/12 04:49:25;;;;;;;;;;;;;;;4.47;78.60;98293.97;5081368;28;4613;-79
2023/01/12 04:51:52;;;;;;;;;;;;;;;4.49;78.43;98291.03;5066550;28;4524;-79
2023/01/12 04:54:18;;;;;;;;;;;;;;;4.48;78.48;98292.91;5080465;28;4781;-79
2023/01/12 04:56:45;;;;;;;;;;;;;;;4.52;78.07;98295.91;5062797;28;4480;-79
2023/01/12 04:59:11;;;;;;;;;;;;;;;4.51;78.50;98297.75;5068837;28;4564;-79
2023/01/12 05:01:38;;;;;;;;;;;;;;;4.51;78.39;98299.63;5085356;28;4563;-79
2023/01/12 05:04:05;;;;;;;;;;;;;;;4.49;78.43;98297.19;5089906;28;4469;-79
2023/01/12 05:06:31;;;;;;;;;;;;;;;4.48;78.26;98305.44;5077532;28;4550;-79
2023/01/12 05:11:47;;;;;;;;;;;;;;;4.49;78.48;98288.38;5006143;28;4619;-79
2023/01/12 05:14:14;;;;;;;;;;;;;;;4.55;78.22;98284.78;5065382;28;4549;-79
2023/01/12 05:16:40;;;;;;;;;;;;;;;4.49;78.36;98283.84;5073583;28;4567;-79
2023/01/12 05:19:07;;;;;;;;;;;;;;;4.49;78.19;98273.19;5057689;28;4629;-79
2023/01/12 05:21:33;;;;;;;;;;;;;;;4.51;78.37;98272.97;5052319;28;4338;-79
2023/01/12 05:24:00;;;;;;;;;;;;;;;4.48;78.60;98262.78;5066224;28;4135;-79
2023/01/12 05:26:26;;;;;;;;;;;;;;;4.50;78.57;98260.66;5065096;28;4622;-79
2023/01/12 05:28:53;;;;;;;;;;;;;;;4.52;78.48;98261.25;5066805;28;4507;-79
2023/01/12 05:31:19;;;;;;;;;;;;;;;4.48;78.54;98270.78;5071797;28;4673;-79
2023/01/12 05:33:46;;;;;;;;;;;;;;;4.47;78.28;98269.97;5074246;28;4527;-79
2023/01/12 05:36:12;;;;;;;;;;;;;;;4.47;78.65;98271.78;5073355;28;4544;-79
2023/01/12 05:38:39;;;;;;;;;;;;;;;4.48;78.64;98260.91;5076713;28;4546;-79
2023/01/12 05:41:06;;;;;;;;;;;;;;;4.46;78.14;98260.34;5068139;28;4594;-79
2023/01/12 05:43:50;;;;;;;;;;;;;;;4.48;78.39;98270.78;5079904;28;4625;-79
2023/01/12 05:46:17;;;;;;;;;;;;;;;4.48;78.40;98265.44;5089668;28;4863;-79
2023/01/12 05:48:43;;;;;;;;;;;;;;;4.48;78.45;98260.91;5073350;28;4486;-79
2023/01/12 05:51:10;;;;;;;;;;;;;;;4.51;78.36;98259.63;5069969;28;4620;-79
2023/01/12 05:53:36;;;;;;;;;;;;;;;4.50;78.33;98260.66;5070077;28;4495;-79
2023/01/12 05:56:03;;;;;;;;;;;;;;;4.51;78.42;98251.63;5082151;28;4668;-79
2023/01/12 05:58:30;;;;;;;;;;;;;;;4.48;78.52;98260.09;5082547;28;4127;-79
2023/01/12 06:00:56;;;;;;;;;;;;;;;4.47;78.56;98258.47;5072851;28;4560;-79
2023/01/12 06:03:23;;;;;;;;;;;;;;;4.47;78.76;98250.47;5074266;28;4567;-79
2023/01/12 06:05:50;;;;;;;;;;;;;;;4.46;78.38;98251.53;5069991;28;4511;-79
2023/01/12 06:08:16;;;;;;;;;;;;;;;4.47;78.55;98239.81;5072905;28;4651;-79
2023/01/12 06:10:44;;;;;;;;;;;;;;;4.49;78.61;98238.53;5068570;28;4573;-79
2023/01/12 06:15:55;;;;;;;;;;;;;;;4.47;78.58;98243.31;5055763;28;4486;-79
2023/01/12 06:18:22;;;;;;;;;;;;;;;4.53;78.31;98241.56;5072349;28;4420;-79
2023/01/12 06:20:48;;;;;;;;;;;;;;;4.47;78.37;98251.31;5073858;28;4626;-79
2023/01/12 06:23:15;;;;;;;;;;;;;;;4.48;78.43;98236.94;5053800;28;4517;-79
2023/01/12 06:25:42;;;;;;;;;;;;;;;4.45;78.51;98244.59;5053398;28;4535;-79
2023/01/12 06:28:08;;;;;;;;;;;;;;;4.45;78.32;98247.25;5074876;28;4530;-79
2023/01/12 06:30:35;;;;;;;;;;;;;;;4.46;78.36;98259.53;5071179;28;4746;-79
2023/01/12 06:33:01;;;;;;;;;;;;;;;4.50;78.14;98258.84;5060974;28;4541;-79
2023/01/12 06:35:28;;;;;;;;;;;;;;;4.49;78.45;98262.53;5072814;28;4573;-79
2023/01/12 06:37:54;;;;;;;;;;;;;;;4.51;78.21;98259.63;5057919;28;4497;-79
2023/01/12 06:40:21;;;;;;;;;;;;;;;4.49;78.20;98256.38;5051885;28;4326;-79
2023/01/12 06:42:47;;;;;;;;;;;;;;;4.49;78.07;98253.72;5072383;28;4511;-79
2023/01/12 06:45:14;;;;;;;;;;;;;;;4.47;78.23;98258.47;5070027;28;4543;-79
2023/01/12 06:47:40;;;;;;;;;;;;;;;4.45;78.62;98252.59;5050415;28;4518;-79
2023/01/12 06:50:07;;;;;;;;;;;;;;;4.47;78.06;98264.63;5075267;28;4492;-79
2023/01/12 06:52:33;;;;;;;;;;;;;;;4.58;77.97;98267.50;5069808;28;4483;-79
2023/01/12 06:55:00;;;;;;;;;;;;;;;4.68;77.59;98265.03;5067888;28;4589;-79
2023/01/12 06:57:27;;;;;;;;;;;;;;;4.54;77.88;98254.63;5072714;28;4608;-79
2023/01/12 06:59:53;;;;;;;;;;;;;;;4.52;78.03;98258.59;5072125;28;4668;-79
2023/01/12 07:02:20;;;;;;;;;;;;;;;4.54;77.84;98254.63;5056919;28;4509;-79
2023/01/12 07:04:46;;;;;;;;;;;;;;;4.57;77.73;98247.22;5072955;28;4563;-79
2023/01/12 07:07:13;;;;;;;;;;;;;;;4.53;77.99;98263.69;5053340;28;4472;-79
2023/01/12 07:09:39;;;;;;;;;;;;;;;4.60;77.73;98260.06;5067125;28;4594;-79
2023/01/12 07:12:06;;;;;;;;;;;;;;;4.54;77.85;98259.16;5069866;28;4464;-79
2023/01/12 07:14:32;;;;;;;;;;;;;;;4.62;77.76;98253.47;5069751;28;4567;-79
2023/01/12 07:16:59;;;;;;;;;;;;;;;4.66;77.31;98251.13;5071755;28;4948;-79
2023/01/12 07:19:25;;;;;;;;;;;;;;;4.63;77.47;98251.59;5049157;28;4562;-79
2023/01/12 07:21:52;;;;;;;;;;;;;;;4.62;77.51;98249.97;5071876;28;5071;-79
2023/01/12 07:24:18;;;;;;;;;;;;;;;4.61;77.49;98259.81;5076395;28;4534;-79
2023/01/12 07:26:45;;;;;;;;;;;;;;;4.53;77.87;98257.56;5081449;28;5042;-79
2023/01/12 07:29:11;;;;;;;;;;;;;;;4.62;77.73;98260.63;5080918;28;4685;-79
2023/01/12 07:31:38;;;;;;;;;;;;;;;4.68;77.31;98265.03;5077797;28;4989;-79
2023/01/12 07:34:05;;;;;;;;;;;;;;;4.74;77.08;98266.75;5068299;28;4530;-79
2023/01/12 07:36:31;;;;;;;;;;;;;;;4.58;77.67;98254.16;5072795;28;4774;-79
2023/01/12 07:38:58;;;;;;;;;;;;;;;4.64;77.63;98258.53;5070057;28;4527;-79
2023/01/12 07:44:09;;;;;;;;;;;;;;;4.53;77.92;98262.88;5077844;28;3729;-79
2023/01/12 07:46:36;;;;;;;;;;;;;;;4.51;78.03;98260.44;5073261;28;3788;-79
2023/01/12 07:49:03;;;;;;;;;;;;;;;4.68;77.29;98259.72;5072136;28;3812;-79
2023/01/12 07:51:30;;;;;;;;;;;;;;;4.65;77.49;98246.84;5076209;28;4373;-79
2023/01/12 07:53:57;;;;;;;;;;;;;;;4.68;77.19;98254.38;5072336;28;3771;-79
2023/01/12 07:56:23;;;;;;;;;;;;;;;4.69;77.19;98258.66;5060649;28;3558;-79
2023/01/12 07:58:50;;;;;;;;;;;;;;;4.57;77.73;98252.56;5076958;28;4278;-79
2023/01/12 08:01:16;;;;;;;;;;;;;;;4.57;77.58;98257.88;5092997;28;4563;-79
2023/01/12 08:03:43;;;;;;;;;;;;;;;4.57;77.66;98255.22;5091343;28;4351;-79
2023/01/12 08:06:09;;;;;;;;;;;;;;;4.55;77.79;98250.91;5075894;28;4493;-79
2023/01/12 08:08:36;;;;;;;;;;;;;;;4.55;77.76;98252.78;5091169;28;3955;-79
2023/01/12 08:11:02;;;;;;;;;;;;;;;4.65;77.38;98254.84;5079278;28;4457;-79
2023/01/12 08:13:29;;;;;;;;;;;;;;;4.76;77.00;98254.81;5077540;28;4430;-79
2023/01/12 08:15:55;;;;;;;;;;;;;;;4.70;77.32;98261.06;5088196;28;4466;-79
2023/01/12 08:18:22;;;;;;;;;;;;;;;4.61;77.44;98270.50;5075313;28;4028;-79
2023/01/12 08:20:48;;;;;;;;;;;;;;;4.57;77.61;98266.69;5085230;28;3837;-79
2023/01/12 08:23:15;;;;;;;;;;;;;;;4.64;77.57;98270.00;5077093;28;3936;-79
2023/01/12 08:25:43;;;;;;;;;;;;;;;4.69;77.16;98272.78;5066178;28;3686;-79
2023/01/12 08:28:12;;;;;;;;;;;;;;;4.63;77.39;98272.94;5092516;28;3949;-79
2023/01/12 08:30:38;;;;;;;;;;;;;;;4.59;77.40;98272.59;5092600;28;4065;-79
2023/01/12 08:33:05;;;;;;;;;;;;;;;4.58;77.58;98275.50;5094493;28;4443;-79
2023/01/12 08:35:31;;;;;;;;;;;;;;;4.61;77.26;98281.16;5094094;28;4396;-79
2023/01/12 08:37:58;;;;;;;;;;;;;;;4.62;77.39;98284.63;5087082;28;3811;-79
2023/01/12 08:41:31;;;;;;;;;;;;;;;4.78;77.05;98275.91;5094011;28;4407;-79
2023/01/12 08:43:11;;;;;;;;;;;;;;;4.60;77.56;98260.06;5088414;28;4661;-79
2023/01/12 08:45:38;;;;;;;;;;;;;;;4.67;77.20;98272.22;5086770;28;4417;-79
2023/01/12 08:48:04;;;;;;;;;;;;;;;4.58;77.55;98276.28;5093535;28;4470;-79
2023/01/12 08:50:31;;;;;;;;;;;;;;;4.53;77.63;98274.34;5092273;28;4487;-79
2023/01/12 08:52:57;;;;;;;;;;;;;;;4.52;77.80;98271.91;5090315;28;4542;-79
2023/01/12 08:55:24;;;;;;;;;;;;;;;4.48;77.84;98268.09;5083614;28;4215;-79
2023/01/12 08:57:50;;;;;;;;;;;;;;;4.52;77.66;98283.38;5062190;28;3778;-79
2023/01/12 09:00:17;;;;;;;;;;;;;;;4.65;77.13;98271.66;5079839;28;2647;-79
2023/01/12 09:02:44;;;;;;;;;;;;;;;4.64;77.00;98279.88;5063202;28;4241;-79
2023/01/12 09:05:10;;;;;;;;;;;;;;;4.63;77.25;98275.59;5079738;28;4292;-79
2023/01/12 09:07:37;;;;;;;;;;;;;;;4.65;77.05;98278.84;5076435;28;4352;-79
2023/01/12 09:10:05;;;;;;;;;;;;;;;4.59;77.36;98287.75;5075891;28;4340;-79
2023/01/12 09:12:31;;;;;;;;;;;;;;;4.55;77.34;98285.56;5075860;28;4198;-79
2023/01/12 09:14:58;;;;;;;;;;;;;;;4.63;77.34;98283.59;5089626;28;1893;-79
2023/01/12 09:17:25;;;;;;;;;;;;;;;4.51;77.63;98281.78;5087582;28;4273;-79
2023/01/12 09:19:52;;;;;;;;;;;;;;;4.46;77.69;98288.84;5075861;28;1956;-79
2023/01/12 09:22:18;;;;;;;;;;;;;;;4.53;77.39;98285.03;5090535;28;2235;-79
2023/01/12 09:24:45;;;;;;;;;;;;;;;4.54;77.55;98283.16;5094316;28;1859;-79
2023/01/12 09:27:12;;;;;;;;;;;;;;;4.51;77.75;98278.31;5095370;28;1835;-79
2023/01/12 09:29:39;;;;;;;;;;;;;;;4.49;77.82;98283.84;5093523;28;3708;-80
2023/01/12 09:32:05;;;;;;;;;;;;;;;4.49;77.77;98281.19;5092107;28;2221;-79
2023/01/12 09:34:32;;;;;;;;;;;;;;;4.52;77.63;98285.25;5091976;28;2294;-79
2023/01/12 09:36:58;;;;;;;;;;;;;;;4.56;77.36;98283.75;5098087;28;1623;-79
2023/01/12 09:39:27;;;;;;;;;;;;;;;4.61;77.08;98293.69;5078889;28;1976;-79
2023/01/12 09:47:22;;;;;;;;;;;;;;;4.55;77.58;98306.09;5094722;28;1915;-79
2023/01/12 09:49:48;;;;;;;;;;;;;;;4.66;77.03;98294.59;5075377;28;2233;-80
2023/01/12 09:52:15;;;;;;;;;;;;;;;4.64;77.03;98287.88;5094093;28;2184;-79
2023/01/12 09:54:41;;;;;;;;;;;;;;;4.66;76.84;98288.47;5076179;28;2439;-79
2023/01/12 09:57:08;;;;;;;;;;;;;;;4.72;76.67;98290.97;5091937;28;2121;-79
2023/01/12 09:59:35;;;;;;;;;;;;;;;4.58;77.21;98289.63;5082347;28;1938;-80
2023/01/12 10:02:01;;;;;;;;;;;;;;;4.54;77.29;98291.16;5083719;28;1791;-79
2023/01/12 10:04:28;;;;;;;;;;;;;;;4.62;77.24;98293.47;5095581;28;1965;-79
2023/01/12 10:06:54;;;;;;;;;;;;;;;4.58;77.30;98288.81;5080420;28;4815;-79
2023/01/12 10:09:21;;;;;;;;;;;;;;;4.55;77.30;98288.25;5080935;28;4225;-79
2023/01/12 10:11:47;;;;;;;;;;;;;;;4.63;77.43;98280.94;5079844;28;4403;-79
2023/01/12 10:14:15;;;;;;;;;;;;;;;4.74;76.66;98283.56;5082631;28;4303;-79
2023/01/12 10:16:42;;;;;;;;;;;;;;;4.68;77.04;98283.72;5069893;28;4283;-79
2023/01/12 10:19:08;;;;;;;;;;;;;;;4.62;77.19;98285.47;5063244;28;4293;-79
2023/01/12 10:21:35;;;;;;;;;;;;;;;4.65;77.10;98289.50;5081721;28;4296;-79
2023/01/12 10:24:01;;;;;;;;;;;;;;;4.62;77.21;98287.28;5079630;28;4351;-79
2023/01/12 10:26:28;;;;;;;;;;;;;;;4.67;76.98;98288.22;5079211;28;4289;-80
2023/01/12 10:28:55;;;;;;;;;;;;;;;4.63;77.17;98289.75;5080129;28;4324;-80
2023/01/12 10:31:22;;;;;;;;;;;;;;;4.61;77.33;98283.03;5060029;28;4390;-80
2023/01/12 10:33:48;;;;;;;;;;;;;;;4.67;77.27;98288.22;5080874;28;4277;-80
2023/01/12 10:36:15;;;;;;;;;;;;;;;4.67;77.31;98285.53;5063569;28;4161;-80
2023/01/12 10:38:43;;;;;;;;;;;;;;;4.84;76.66;98284.81;5073092;28;4443;-80
2023/01/12 10:41:09;;;;;;;;;;;;;;;4.88;76.32;98284.09;5063822;28;3895;-79
2023/01/12 10:43:36;;;;;;;;;;;;;;;4.83;76.43;98277.88;5080349;28;4336;-80
2023/01/12 10:46:02;;;;;;;;;;;;;;;4.72;76.95;98276.84;5084041;28;3864;-79
2023/01/12 10:48:29;;;;;;;;;;;;;;;4.73;76.89;98273.13;5090072;28;4005;-80
2023/01/12 10:50:56;;;;;;;;;;;;;;;4.69;76.96;98274.66;5073148;28;4281;-79
2023/01/12 10:53:26;;;;;;;;;;;;;;;4.65;77.24;98279.66;5062413;28;4131;-79
2023/01/12 10:55:53;;;;;;;;;;;;;;;4.68;77.10;98281.03;5070907;28;4233;-80
2023/01/12 10:58:22;;;;;;;;;;;;;;;4.67;77.04;98268.75;5079801;28;4280;-79
2023/01/12 11:00:49;;;;;;;;;;;;;;;4.72;77.04;98280.31;5069310;28;3986;-79
2023/01/12 11:03:15;;;;;;;;;;;;;;;4.67;77.14;98284.72;5075120;28;4593;-79
2023/01/12 11:05:43;;;;;;;;;;;;;;;4.66;77.25;98286.59;5077089;28;4469;-79
2023/01/12 11:08:11;;;;;;;;;;;;;;;4.29;77.25;98225.63;5057078;28;4534;-79
2023/01/12 11:10:40;;;;;;;;;;;;;;;4.67;77.17;98285.53;5079564;28;4581;-79
2023/01/12 11:13:09;;;;;;;;;;;;;;;4.64;77.18;98293.22;5072453;28;4480;-79
2023/01/12 11:15:38;;;;;;;;;;;;;;;4.64;77.41;98287.88;5073916;28;4511;-79
2023/01/12 11:18:06;;;;;;;;;;;;;;;4.66;77.44;98286.59;5074594;28;4518;-79
2023/01/12 11:20:33;;;;;;;;;;;;;;;4.66;77.19;98291.94;5075099;28;4464;-79
2023/01/12 11:22:59;;;;;;;;;;;;;;;4.66;77.44;98285.78;5072018;28;4741;-79
2023/01/12 11:25:26;;;;;;;;;;;;;;;4.76;77.03;98296.66;5092172;28;4531;-79
2023/01/12 11:27:52;;;;;;;;;;;;;;;4.71;77.11;98286.72;5089921;28;4578;-79
2023/01/12 11:30:19;;;;;;;;;;;;;;;4.71;77.42;98297.38;5089457;28;4958;-79
2023/01/12 11:32:46;;;;;;;;;;;;;;;4.71;77.27;98299.25;5087998;28;4950;-79
2023/01/12 11:35:12;;;;;;;;;;;;;;;4.69;77.35;98294.13;5090397;28;4860;-80
2023/01/12 11:37:39;;;;;;;;;;;;;;;4.72;77.19;98290.19;5086540;28;5363;-79
2023/01/12 11:40:06;;;;;;;;;;;;;;;4.70;77.36;98289.59;5070867;28;4941;-78
2023/01/12 11:45:16;;;;;;;;;;;;;;;4.65;77.47;98293.00;5090626;28;4774;-79
2023/01/12 11:47:43;;;;;;;;;;;;;;;4.68;77.34;98289.03;5087868;28;4624;-79
2023/01/12 11:50:09;;;;;;;;;;;;;;;4.66;77.70;98280.47;5090406;28;4809;-79
2023/01/12 11:52:36;;;;;;;;;;;;;;;4.65;77.57;98285.00;5086367;28;4813;-79
2023/01/12 11:55:02;;;;;;;;;;;;;;;4.65;77.62;98282.31;5077925;28;4835;-79
2023/01/12 11:57:29;;;;;;;;;;;;;;;4.64;77.62;98286.00;5084189;28;4726;-80
2023/01/12 11:59:55;;;;;;;;;;;;;;;4.68;77.48;98276.50;5085404;28;4845;-79
2023/01/12 12:02:22;;;;;;;;;;;;;;;4.68;77.39;98279.19;5058539;28;4691;-79
2023/01/12 12:04:48;;;;;;;;;;;;;;;4.67;77.54;98285.53;5076008;28;4742;-79
2023/01/12 12:07:15;;;;;;;;;;;;;;;4.67;77.77;98282.88;5077318;28;4673;-79
2023/01/12 12:09:41;;;;;;;;;;;;;;;4.69;77.48;98283.47;5067481;28;4727;-79
2023/01/12 12:12:08;;;;;;;;;;;;;;;4.70;77.53;98282.41;5086197;28;4863;-79
2023/01/12 12:14:35;;;;;;;;;;;;;;;4.71;77.61;98284.03;5087278;28;4511;-79
2023/01/12 12:17:02;;;;;;;;;;;;;;;4.70;77.57;98279.72;5088841;28;4693;-79
2023/01/12 12:19:28;;;;;;;;;;;;;;;4.73;77.49;98279.25;5088586;28;4855;-79
2023/01/12 12:21:55;;;;;;;;;;;;;;;4.70;77.81;98279.72;5088396;28;4917;-79
2023/01/12 12:24:21;;;;;;;;;;;;;;;4.72;77.57;98276.84;5074123;28;4947;-79
2023/01/12 12:26:49;;;;;;;;;;;;;;;4.71;77.60;98270.72;5088340;28;4968;-79
2023/01/12 12:29:16;;;;;;;;;;;;;;;4.70;77.70;98274.41;5088601;28;4738;-79
2023/01/12 12:31:42;;;;;;;;;;;;;;;4.71;77.57;98267.25;5089724;28;4829;-79
2023/01/12 12:34:09;;;;;;;;;;;;;;;4.75;77.54;98274.50;5087606;28;4920;-79
2023/01/12 12:36:36;;;;;;;;;;;;;;;4.74;77.88;98272.09;5087779;28;5197;-79
2023/01/12 12:39:02;;;;;;;;;;;;;;;4.74;77.37;98267.56;5087271;28;4842;-79
2023/01/12 12:46:53;;;;;;;;;;;;;;;4.74;77.91;98266.75;5042815;28;4952;-79
2023/01/12 12:49:21;;;;;;;;;;;;;;;4.74;77.79;98269.44;5073789;28;4780;-79
2023/01/12 12:51:48;;;;;;;;;;;;;;;4.75;77.87;98268.38;5084548;28;4862;-79
2023/01/12 12:54:14;;;;;;;;;;;;;;;4.77;77.68;98260.94;5080693;28;4950;-79
2023/01/12 12:56:41;;;;;;;;;;;;;;;4.80;77.60;98268.47;5086101;28;4785;-79
2023/01/12 12:59:07;;;;;;;;;;;;;;;4.77;77.57;98252.94;5086707;28;4655;-79
2023/01/12 13:01:34;;;;;;;;;;;;;;;4.76;77.63;98259.31;5074519;28;4836;-79
2023/01/12 13:04:00;;;;;;;;;;;;;;;4.81;77.57;98262.09;5070688;28;4855;-79
2023/01/12 13:06:27;;;;;;;;;;;;;;;4.78;77.74;98259.91;5088103;28;4747;-78
2023/01/12 13:08:54;;;;;;;;;;;;;;;4.78;77.80;98263.38;5088888;28;4790;-78
2023/01/12 13:11:20;;;;;;;;;;;;;;;4.74;77.91;98248.91;5083529;28;4770;-78
2023/01/12 13:13:47;;;;;;;;;;;;;;;4.76;77.71;98253.97;5086461;28;4882;-78
2023/01/12 13:16:13;;;;;;;;;;;;;;;4.76;77.97;98252.16;5088774;28;4885;-79
2023/01/12 13:18:40;;;;;;;;;;;;;;;3.80;80.87;98257.06;5085075;28;4901;-78
2023/01/12 13:21:06;;;;;;;;;;;;;;;4.74;78.22;98256.09;5088481;28;4643;-78
2023/01/12 13:23:33;;;;;;;;;;;;;;;4.82;78.38;98266.34;5072076;28;4814;-78
2023/01/12 13:26:00;;;;;;;;;;;;;;;4.80;78.36;98262.34;5069777;28;4832;-78
2023/01/12 13:28:26;;;;;;;;;;;;;;;4.79;78.24;98264.16;5087618;28;4902;-78
2023/01/12 13:30:54;;;;;;;;;;;;;;;4.79;78.35;98261.50;5071241;28;4733;-78
2023/01/12 13:33:20;;;;;;;;;;;;;;;4.80;78.28;98257.81;5088882;28;5029;-78
2023/01/12 13:35:47;;;;;;;;;;;;;;;4.82;78.26;98266.34;5087983;28;5064;-78
2023/01/12 13:38:15;;;;;;;;;;;;;;;4.84;78.60;98253.59;5085125;28;4945;-78
2023/01/12 13:40:42;;;;;;;;;;;;;;;4.85;78.46;98262.41;5085665;28;4883;-78
2023/01/12 13:43:14;;;;;;;;;;;;;;;4.83;78.46;98254.66;5086870;28;4785;-78